Centennial Airport
KAPA : now visible

Airfield :











YOU CAN JOIN US ON...

 
LOGIN :

Register | Disclaimer

   EN    FR    IT 

 









Legend :    VFR   Marginal VFR   IFR   Intensive IFR   Very Intensive IFR
Visi :
Ceiling :
>= 8 km
>= 3000ft
5 to 8 km
1000 to 3000 ft
1500m to 5 km
500 to 1000 ft
800 to 1500m
200 to 500 ft
< 800m
< 200 ft
Symbols :   Thunderstorms  Fog  Heavy snow  Heavy precipitations  Wind > 20 kt






- Airport Elevation : 5885 ft


KAPA - Centennial

CURRENT METAR :
  • 031353Z 25003KT 10SM BKN100 BKN220 21/11 A3024 RMK AO2 SLP162 T02060106

EXPIRED METARs :
  • 031253Z 00000KT 10SM SCT110 BKN220 21/10 A3022 RMK AO2 SLP153 T02060100
  • 031153Z 25006KT 10SM OVC110 20/10 A3021 RMK AO2 SLP149 T02000100 10217 20178 56002

TAF KAPA
Valid from the 03 at 12:00 until the 04 at 12:00 UTC


031127Z 0312/0412 23004KT P6SM BKN110 BKN220
FM031600 33008KT P6SM BKN110 BKN220
FM032200 32012G20KT P6SM VCTS BKN100CB OVC120
FM040200 20012G20KT P6SM VCSH BKN080 OVC100
FM040600 21007KT P6SM SCT070 BKN100
KZDV FIR / North America



MET'MAP, your aeronautical weather chart ! - Copyright ORBIFLY December 2007 - Disclaimer

ORBIFLY MET'MAP TEAM :

Programming & Development : Alexandra Zaïnal
Concept & original design : Baudouin d'Aumeries
Assistance for programming : Marc-Olivier Méhu
Technical & hardware support : Manuel Goepfert

Contact : metmap@orbifly.com




SOURCES & CREDITS :

   NOAA       Earth
Advisory